Time;durP1;ratioP1;P1;durP2;ratioP2;P2;SDS_P1;SDS_P2;PMS_P1;PMS_P2;Temp;Humidity;BMP_temperature;BMP_pressure;BME280_temperature;BME280_humidity;BME280_pressure;Samples;Min_cycle;Max_cycle;Signal;HPM_P1;HPM_P2
2024/01/02 00:00:32;;;;;;;3.97;1.40;;;6.50;13.70;;;;;;5011527;28;20247;-69
2024/01/02 00:02:57;;;;;;;3.23;1.23;;;6.40;14.00;;;;;;5011997;28;20239;-69
2024/01/02 00:05:23;;;;;;;3.93;1.20;;;6.40;14.20;;;;;;5015266;28;20183;-69
2024/01/02 00:07:49;;;;;;;2.33;1.13;;;6.50;13.80;;;;;;5015216;28;20671;-69
2024/01/02 00:10:15;;;;;;;3.10;1.20;;;6.40;14.00;;;;;;5014972;28;20495;-69
2024/01/02 00:12:40;;;;;;;4.10;2.00;;;6.50;13.80;;;;;;5014950;28;20183;-69
2024/01/02 00:15:07;;;;;;;3.37;1.67;;;6.60;13.80;;;;;;5015069;28;20419;-69
2024/01/02 00:17:33;;;;;;;3.83;1.93;;;6.60;14.00;;;;;;5014979;28;20209;-69
2024/01/02 00:19:58;;;;;;;4.57;1.63;;;6.60;14.10;;;;;;5015079;28;20504;-69
2024/01/02 00:22:24;;;;;;;3.20;1.20;;;6.60;13.90;;;;;;5014672;28;20803;-70
2024/01/02 00:24:50;;;;;;;2.80;0.87;;;6.60;13.90;;;;;;5014839;28;20422;-69
2024/01/02 00:27:15;;;;;;;4.30;1.20;;;6.50;14.30;;;;;;5014633;28;20169;-69
2024/01/02 00:29:41;;;;;;;4.27;1.20;;;6.50;14.30;;;;;;5014697;28;20188;-69
2024/01/02 00:32:06;;;;;;;2.17;1.37;;;6.50;14.80;;;;;;5014620;28;20209;-70
2024/01/02 00:34:47;;;;;;;2.63;1.30;;;6.50;15.00;;;;;;5014726;28;20639;-70
2024/01/02 00:37:12;;;;;;;2.00;1.20;;;6.50;15.30;;;;;;5014499;28;20568;-70
2024/01/02 00:39:38;;;;;;;2.40;1.40;;;6.50;14.90;;;;;;5014457;28;20424;-69
2024/01/02 00:42:04;;;;;;;2.80;1.23;;;6.50;15.10;;;;;;5014123;28;20261;-70
2024/01/02 00:44:29;;;;;;;3.17;1.20;;;6.50;15.90;;;;;;5014352;28;20178;-70
2024/01/02 00:46:55;;;;;;;3.20;1.23;;;6.40;15.70;;;;;;5014559;28;20241;-70
2024/01/02 00:49:20;;;;;;;2.60;1.50;;;6.40;15.40;;;;;;5014575;28;20188;-70
2024/01/02 00:51:46;;;;;;;7.20;1.73;;;6.40;15.30;;;;;;5014095;28;20204;-70
2024/01/02 00:54:11;;;;;;;3.77;1.10;;;6.50;15.10;;;;;;5014354;28;20184;-70
2024/01/02 00:56:37;;;;;;;3.20;1.40;;;6.50;15.50;;;;;;5014150;28;20186;-70
2024/01/02 00:59:02;;;;;;;5.90;2.03;;;6.60;15.30;;;;;;5014088;28;20201;-70
2024/01/02 01:01:28;;;;;;;2.20;1.07;;;6.50;15.60;;;;;;5013931;28;20200;-70
2024/01/02 01:03:54;;;;;;;2.73;1.37;;;6.50;15.40;;;;;;5014092;28;20262;-69
2024/01/02 01:06:19;;;;;;;2.83;1.27;;;6.50;15.10;;;;;;5014011;28;20181;-70
2024/01/02 01:08:45;;;;;;;2.00;1.07;;;6.50;15.20;;;;;;5013907;28;20187;-70
2024/01/02 01:11:12;;;;;;;3.53;1.50;;;6.60;15.20;;;;;;5041569;23;20290;-68
2024/01/02 01:13:38;;;;;;;3.63;1.00;;;6.50;15.10;;;;;;5027420;28;20173;-68
2024/01/02 01:16:04;;;;;;;4.53;1.37;;;6.60;15.60;;;;;;5027090;28;20415;-69
2024/01/02 01:18:30;;;;;;;2.20;0.90;;;6.50;15.60;;;;;;5028295;28;20211;-68
2024/01/02 01:20:56;;;;;;;2.30;1.20;;;6.50;15.60;;;;;;5028279;28;20436;-68
2024/01/02 01:23:22;;;;;;;1.87;1.00;;;7.20;16.60;;;;;;5028838;28;20433;-69
2024/01/02 01:25:47;;;;;;;2.60;1.93;;;6.40;16.40;;;;;;5028374;28;20508;-70
2024/01/02 01:28:13;;;;;;;3.70;1.37;;;6.40;16.20;;;;;;5027431;28;20212;-69
2024/01/02 01:30:39;;;;;;;2.27;1.00;;;6.30;15.80;;;;;;5026418;28;20185;-71
2024/01/02 01:33:04;;;;;;;3.30;1.67;;;6.50;16.00;;;;;;5027453;28;20187;-68
2024/01/02 01:35:30;;;;;;;2.43;1.00;;;6.50;16.00;;;;;;5027703;28;20209;-69
2024/01/02 01:37:55;;;;;;;1.80;0.70;;;6.50;15.90;;;;;;5026805;28;20199;-69
2024/01/02 01:40:21;;;;;;;1.83;0.80;;;6.40;16.00;;;;;;5026365;28;20231;-69
2024/01/02 01:42:46;;;;;;;2.60;1.33;;;6.50;15.90;;;;;;5026725;28;20211;-68
2024/01/02 01:45:12;;;;;;;1.90;0.93;;;6.50;16.10;;;;;;5027046;28;20168;-69
2024/01/02 01:47:38;;;;;;;2.53;1.17;;;6.50;16.40;;;;;;5027834;28;20399;-68
2024/01/02 01:50:04;;;;;;;2.00;0.90;;;6.50;16.10;;;;;;5027828;28;20176;-68
2024/01/02 01:52:32;;;;;;;5.60;1.00;;;6.50;16.20;;;;;;5027637;28;20307;-68
2024/01/02 01:54:58;;;;;;;2.87;1.00;;;6.60;15.90;;;;;;5025667;28;20471;-69
2024/01/02 01:57:24;;;;;;;4.13;1.30;;;6.50;16.30;;;;;;5027496;28;20501;-69
2024/01/02 01:59:50;;;;;;;3.60;1.37;;;6.90;17.20;;;;;;5027357;28;20416;-69
2024/01/02 02:02:16;;;;;;;2.37;1.30;;;6.50;16.40;;;;;;5027498;28;20435;-69
2024/01/02 02:04:45;;;;;;;2.37;0.80;;;6.40;16.50;;;;;;5027140;28;20176;-69
2024/01/02 02:07:11;;;;;;;2.77;0.90;;;6.70;16.50;;;;;;5027864;28;20191;-69
2024/01/02 02:09:36;;;;;;;2.73;1.20;;;6.40;16.40;;;;;;5026821;28;20426;-68
2024/01/02 02:12:03;;;;;;;2.57;0.90;;;6.50;16.20;;;;;;5025069;28;20505;-68
2024/01/02 02:14:28;;;;;;;1.80;1.00;;;6.50;15.90;;;;;;5026241;28;20187;-70
2024/01/02 02:16:54;;;;;;;2.07;0.97;;;6.60;16.20;;;;;;5026233;28;20452;-68
2024/01/02 02:19:19;;;;;;;2.13;1.27;;;6.60;16.40;;;;;;5025505;28;20184;-68
2024/01/02 02:21:47;;;;;;;3.10;1.20;;;6.60;16.30;;;;;;5026123;28;20259;-69
2024/01/02 02:24:13;;;;;;;2.07;0.87;;;6.60;16.10;;;;;;5026620;28;20187;-68
2024/01/02 02:26:38;;;;;;;5.20;1.33;;;6.50;16.30;;;;;;5025148;28;20431;-68
2024/01/02 02:29:04;;;;;;;2.47;1.10;;;6.50;16.10;;;;;;5027227;28;20536;-69
2024/01/02 02:31:30;;;;;;;3.70;1.30;;;6.60;16.30;;;;;;5026736;28;20215;-69
2024/01/02 02:33:56;;;;;;;3.20;1.30;;;6.60;16.30;;;;;;5027002;28;20173;-69
2024/01/02 02:36:21;;;;;;;2.43;1.00;;;6.70;16.30;;;;;;5025872;28;20430;-69
2024/01/02 02:38:47;;;;;;;2.00;0.90;;;6.50;16.20;;;;;;5027347;28;20214;-69
2024/01/02 02:41:13;;;;;;;4.53;1.60;;;6.60;16.40;;;;;;5026968;28;20224;-69
2024/01/02 02:43:38;;;;;;;5.43;1.53;;;6.60;16.60;;;;;;5026213;28;20236;-68
2024/01/02 02:46:04;;;;;;;1.93;0.97;;;6.50;16.30;;;;;;5028524;28;20159;-68
2024/01/02 02:48:29;;;;;;;1.90;0.87;;;6.60;16.90;;;;;;5028042;28;20188;-67
2024/01/02 02:50:55;;;;;;;2.70;1.00;;;6.60;16.60;;;;;;5026960;28;20562;-69
2024/01/02 02:53:20;;;;;;;1.70;0.70;;;6.60;16.60;;;;;;5027235;28;20180;-68
2024/01/02 02:55:46;;;;;;;2.57;1.00;;;6.50;16.50;;;;;;5027342;28;20177;-69
2024/01/02 02:58:12;;;;;;;2.97;0.80;;;6.60;16.70;;;;;;5026712;28;20248;-69
2024/01/02 03:00:37;;;;;;;3.00;1.57;;;6.70;17.10;;;;;;5026816;28;20192;-69
2024/01/02 03:03:04;;;;;;;2.30;1.20;;;6.50;18.00;;;;;;5027238;28;20555;-68
2024/01/02 03:05:33;;;;;;;2.30;1.07;;;6.50;18.20;;;;;;5025801;28;20210;-68
2024/01/02 03:07:58;;;;;;;3.00;1.10;;;6.40;18.70;;;;;;5026382;28;20486;-71
2024/01/02 03:10:24;;;;;;;2.00;1.00;;;6.40;19.40;;;;;;5025705;28;20415;-68
2024/01/02 03:12:50;;;;;;;3.20;1.13;;;6.40;19.30;;;;;;5026488;28;20275;-69
2024/01/02 03:15:17;;;;;;;2.50;0.93;;;6.30;19.60;;;;;;5025147;28;20193;-70
2024/01/02 03:17:42;;;;;;;2.03;0.83;;;6.40;19.80;;;;;;5026604;28;20255;-70
2024/01/02 03:20:08;;;;;;;2.37;0.90;;;6.40;19.80;;;;;;5027115;28;20446;-68
2024/01/02 03:22:34;;;;;;;2.90;1.00;;;6.50;20.10;;;;;;5026891;28;20265;-68
2024/01/02 03:24:59;;;;;;;2.47;1.13;;;6.40;20.40;;;;;;5026804;28;20423;-68
2024/01/02 03:27:25;;;;;;;5.23;1.13;;;6.50;20.50;;;;;;5026726;28;20180;-69
2024/01/02 03:29:50;;;;;;;4.17;1.10;;;6.50;21.10;;;;;;5027091;28;20208;-69
2024/01/02 03:32:16;;;;;;;2.70;1.10;;;6.60;21.30;;;;;;5026582;28;20193;-68
2024/01/02 03:34:42;;;;;;;2.33;0.90;;;6.40;21.80;;;;;;5027026;28;20172;-69
2024/01/02 03:37:08;;;;;;;3.23;0.80;;;6.40;22.10;;;;;;5026098;28;20255;-70
2024/01/02 03:39:33;;;;;;;2.60;0.87;;;6.40;22.60;;;;;;5029303;28;20168;-69
2024/01/02 03:41:59;;;;;;;1.63;0.70;;;6.40;22.80;;;;;;5030270;28;20443;-69
2024/01/02 03:44:25;;;;;;;1.80;0.83;;;6.40;23.60;;;;;;5030076;28;20237;-69
2024/01/02 03:46:51;;;;;;;1.87;1.13;;;6.50;24.50;;;;;;5030280;28;20414;-68
2024/01/02 03:49:17;;;;;;;1.80;0.83;;;6.40;24.70;;;;;;5030064;28;20197;-68
2024/01/02 03:51:43;;;;;;;5.00;1.00;;;6.40;24.80;;;;;;5030414;28;20495;-68
2024/01/02 03:54:08;;;;;;;5.23;1.30;;;6.20;25.20;;;;;;5030999;28;20372;-68
2024/01/02 03:56:34;;;;;;;2.60;1.30;;;6.50;25.60;;;;;;5030194;28;20210;-68
2024/01/02 03:59:00;;;;;;;2.63;0.90;;;6.40;25.80;;;;;;5030478;28;20172;-69
2024/01/02 04:01:25;;;;;;;2.00;0.93;;;6.40;26.30;;;;;;5028614;28;20228;-69
2024/01/02 04:03:51;;;;;;;2.27;0.80;;;6.40;26.60;;;;;;5030335;28;20181;-68
2024/01/02 04:06:17;;;;;;;2.00;0.80;;;6.40;27.20;;;;;;5030316;28;20549;-68
2024/01/02 04:08:42;;;;;;;2.50;0.90;;;6.30;26.80;;;;;;5028194;28;20184;-69
2024/01/02 04:11:08;;;;;;;3.07;1.30;;;6.30;27.50;;;;;;5029152;28;20223;-69
2024/01/02 04:13:34;;;;;;;3.00;1.07;;;6.40;29.00;;;;;;5029381;28;20246;-68
2024/01/02 04:16:04;;;;;;;2.83;0.90;;;6.10;29.10;;;;;;5029718;28;20418;-68
2024/01/02 04:18:30;;;;;;;2.83;0.73;;;6.30;29.10;;;;;;5029194;28;20197;-68
2024/01/02 04:20:55;;;;;;;2.37;0.70;;;6.90;29.60;;;;;;5029403;28;20462;-69
2024/01/02 04:23:21;;;;;;;1.97;0.60;;;6.20;30.20;;;;;;5029432;28;20178;-68
2024/01/02 04:25:47;;;;;;;2.60;0.80;;;6.20;30.00;;;;;;5028397;28;20178;-68
2024/01/02 04:28:12;;;;;;;2.63;0.80;;;6.20;30.40;;;;;;5029263;28;20207;-68
2024/01/02 04:30:38;;;;;;;1.50;0.60;;;6.30;30.30;;;;;;5027595;28;20197;-68
2024/01/02 04:33:03;;;;;;;3.83;1.03;;;6.30;30.60;;;;;;5027946;28;20180;-69
2024/01/02 04:35:29;;;;;;;3.10;1.00;;;6.40;29.30;;;;;;5028529;28;20220;-69
2024/01/02 04:37:55;;;;;;;1.90;0.80;;;6.40;31.20;;;;;;5027456;28;20217;-69
2024/01/02 04:40:20;;;;;;;2.27;1.10;;;6.40;31.10;;;;;;5028856;28;20202;-69
2024/01/02 04:42:46;;;;;;;2.37;0.73;;;6.40;31.40;;;;;;5028815;28;20701;-69
2024/01/02 04:45:12;;;;;;;2.50;0.80;;;6.50;30.40;;;;;;5028585;28;20188;-68
2024/01/02 04:47:37;;;;;;;2.43;0.80;;;6.50;32.10;;;;;;5027312;28;20244;-67
2024/01/02 04:50:06;;;;;;;2.57;1.20;;;6.50;33.30;;;;;;5026480;28;20189;-68
2024/01/02 04:52:32;;;;;;;2.30;1.00;;;6.50;33.30;;;;;;5025416;28;20258;-68
2024/01/02 04:55:01;;;;;;;2.10;1.00;;;6.50;35.00;;;;;;5027196;28;20416;-68
2024/01/02 04:57:27;;;;;;;2.13;0.90;;;6.60;32.90;;;;;;5027340;28;20225;-68
2024/01/02 04:59:53;;;;;;;2.10;1.10;;;6.50;34.30;;;;;;5026534;28;20415;-68
2024/01/02 05:02:23;;;;;;;1.60;0.60;;;6.50;34.30;;;;;;5025960;28;20211;-68
2024/01/02 05:04:49;;;;;;;4.80;0.90;;;6.40;35.30;;;;;;5025162;28;20184;-68
2024/01/02 05:07:15;;;;;;;3.97;1.37;;;6.50;35.50;;;;;;5026513;28;20418;-69
2024/01/02 05:09:41;;;;;;;1.80;0.70;;;6.40;37.40;;;;;;5026450;28;20515;-68
2024/01/02 05:12:06;;;;;;;2.83;0.97;;;6.30;38.60;;;;;;5027167;28;20216;-68
2024/01/02 05:14:32;;;;;;;2.03;0.63;;;6.30;37.80;;;;;;5026088;28;20183;-69
2024/01/02 05:16:58;;;;;;;3.60;0.80;;;6.30;38.90;;;;;;5027414;28;20203;-68
2024/01/02 05:19:23;;;;;;;1.70;0.73;;;6.50;39.40;;;;;;5026545;28;20188;-69
2024/01/02 05:21:51;;;;;;;2.43;0.70;;;6.20;39.20;;;;;;5026474;28;20625;-68
2024/01/02 05:24:17;;;;;;;2.40;1.03;;;6.20;39.90;;;;;;5026876;28;20183;-69
2024/01/02 05:26:42;;;;;;;6.70;0.80;;;6.40;39.40;;;;;;5026776;28;20412;-68
2024/01/02 05:29:08;;;;;;;5.80;1.27;;;6.30;37.70;;;;;;5025311;28;20168;-68
2024/01/02 05:31:36;;;;;;;1.70;0.70;;;6.20;36.30;;;;;;5025123;28;20188;-69
2024/01/02 05:34:01;;;;;;;1.57;0.70;;;6.30;36.90;;;;;;5025834;28;20207;-68
2024/01/02 05:36:27;;;;;;;1.60;0.70;;;6.30;36.20;;;;;;5025145;28;20514;-68
2024/01/02 05:38:52;;;;;;;1.67;0.60;;;6.30;37.60;;;;;;5025741;28;20246;-68
2024/01/02 05:41:18;;;;;;;1.80;0.70;;;6.30;36.20;;;;;;5026058;28;20204;-68
2024/01/02 05:43:43;;;;;;;2.47;0.73;;;6.40;37.10;;;;;;5025904;28;20203;-70
2024/01/02 05:46:09;;;;;;;4.10;0.93;;;6.40;36.20;;;;;;5026309;28;20176;-69
2024/01/02 05:48:34;;;;;;;3.13;0.90;;;6.60;36.60;;;;;;5026521;28;20537;-69
2024/01/02 05:51:02;;;;;;;1.70;0.70;;;6.40;36.20;;;;;;5025311;28;20649;-69
2024/01/02 05:53:28;;;;;;;2.47;1.00;;;6.40;35.70;;;;;;5026563;28;20267;-69
2024/01/02 05:55:53;;;;;;;2.10;1.07;;;6.40;35.30;;;;;;5026530;28;20927;-68
2024/01/02 05:58:19;;;;;;;1.80;0.80;;;6.80;34.50;;;;;;5025464;28;20197;-68
2024/01/02 06:00:45;;;;;;;1.70;0.73;;;6.40;32.50;;;;;;5024932;28;20616;-67
2024/01/02 06:03:10;;;;;;;1.50;0.60;;;6.40;33.60;;;;;;5025952;28;20598;-69
2024/01/02 06:05:36;;;;;;;1.80;0.80;;;6.50;32.90;;;;;;5025214;28;20200;-69
2024/01/02 06:08:01;;;;;;;1.50;0.60;;;6.40;33.00;;;;;;5026676;28;20187;-68
2024/01/02 06:10:27;;;;;;;1.77;0.73;;;6.50;34.30;;;;;;5026207;28;20176;-68
2024/01/02 06:12:52;;;;;;;2.80;0.67;;;6.70;32.50;;;;;;5026036;28;20202;-68
2024/01/02 06:15:18;;;;;;;2.17;0.60;;;7.10;33.80;;;;;;5025138;28;20543;-69
2024/01/02 06:17:44;;;;;;;1.80;0.73;;;6.70;33.10;;;;;;5025872;28;20692;-69
2024/01/02 06:20:10;;;;;;;3.00;0.80;;;6.70;32.30;;;;;;5026336;28;20172;-68
2024/01/02 06:22:39;;;;;;;1.60;0.77;;;6.80;32.90;;;;;;5024758;28;20193;-68
2024/01/02 06:25:08;;;;;;;2.47;0.80;;;6.80;32.40;;;;;;5023673;28;20440;-69
2024/01/02 06:27:35;;;;;;;1.87;0.67;;;6.90;31.70;;;;;;5024972;28;20415;-68
2024/01/02 06:30:02;;;;;;;1.60;0.60;;;7.00;32.00;;;;;;5025291;28;20433;-68
2024/01/02 06:32:28;;;;;;;1.43;0.60;;;7.00;31.70;;;;;;5024366;28;20646;-70
2024/01/02 06:34:54;;;;;;;1.40;0.60;;;6.90;31.60;;;;;;5026529;28;20416;-68
2024/01/02 06:37:19;;;;;;;1.40;0.50;;;7.10;32.70;;;;;;5025461;28;20269;-68
2024/01/02 06:39:45;;;;;;;1.60;0.50;;;7.20;32.40;;;;;;5025152;28;20188;-69
2024/01/02 06:42:11;;;;;;;1.50;0.50;;;7.20;32.10;;;;;;5025921;28;20242;-68
2024/01/02 06:44:36;;;;;;;2.10;0.80;;;7.20;33.30;;;;;;5026259;28;20402;-68
2024/01/02 06:47:02;;;;;;;1.70;0.90;;;7.20;32.50;;;;;;5026188;28;20188;-69
2024/01/02 06:49:28;;;;;;;2.00;0.60;;;7.40;32.60;;;;;;5027456;28;20262;-68
2024/01/02 06:51:53;;;;;;;1.50;0.60;;;7.40;33.20;;;;;;5026610;28;20278;-67
2024/01/02 06:54:19;;;;;;;2.53;0.87;;;7.50;32.20;;;;;;5027308;28;20194;-68
2024/01/02 06:56:44;;;;;;;2.13;0.70;;;7.50;32.40;;;;;;5026557;28;20183;-69
2024/01/02 06:59:10;;;;;;;1.57;0.53;;;7.60;32.50;;;;;;5027063;28;20212;-68
2024/01/02 07:01:36;;;;;;;1.70;0.50;;;7.60;31.90;;;;;;5026811;28;20202;-69
2024/01/02 07:04:02;;;;;;;3.33;0.90;;;7.70;30.50;;;;;;5027092;28;20213;-68
2024/01/02 07:06:27;;;;;;;1.50;0.67;;;8.00;30.40;;;;;;5027468;28;20929;-68
2024/01/02 07:08:53;;;;;;;4.40;0.60;;;7.70;30.80;;;;;;5027438;28;20194;-69
2024/01/02 07:11:18;;;;;;;1.57;0.70;;;7.80;30.30;;;;;;5044560;23;20707;-70
2024/01/02 07:13:44;;;;;;;1.53;0.60;;;8.00;29.30;;;;;;5011295;28;20591;-72
2024/01/02 07:16:09;;;;;;;1.80;0.60;;;8.00;29.50;;;;;;5011825;28;20695;-69
2024/01/02 07:18:36;;;;;;;1.40;0.50;;;8.10;29.50;;;;;;5011693;28;20214;-70
2024/01/02 07:21:02;;;;;;;1.40;0.50;;;8.20;28.10;;;;;;5011687;28;20653;-70
2024/01/02 07:23:27;;;;;;;1.50;0.60;;;8.30;28.00;;;;;;5011763;28;20407;-71
2024/01/02 07:25:53;;;;;;;1.60;0.50;;;8.30;26.90;;;;;;5011744;28;20175;-70
2024/01/02 07:28:19;;;;;;;1.40;0.50;;;8.40;27.50;;;;;;5011765;28;20182;-70
2024/01/02 07:30:47;;;;;;;2.13;0.60;;;8.40;27.70;;;;;;5010131;28;20251;-70
2024/01/02 07:33:13;;;;;;;1.40;0.43;;;8.40;28.00;;;;;;5011847;28;20185;-70
2024/01/02 07:35:38;;;;;;;1.50;0.60;;;8.40;27.20;;;;;;5011638;28;20839;-70
2024/01/02 07:38:04;;;;;;;3.10;0.60;;;8.50;27.60;;;;;;5011770;28;20701;-70
2024/01/02 07:40:29;;;;;;;1.50;0.60;;;8.50;27.20;;;;;;5012048;28;20174;-71
2024/01/02 07:42:55;;;;;;;1.30;0.40;;;8.60;26.40;;;;;;5012087;28;20199;-70
2024/01/02 07:45:20;;;;;;;1.40;0.43;;;8.60;26.80;;;;;;5011965;28;20180;-70
2024/01/02 07:47:46;;;;;;;1.50;0.50;;;8.70;26.30;;;;;;5011961;28;20175;-69
2024/01/02 07:50:12;;;;;;;1.60;0.50;;;8.70;26.90;;;;;;5011900;28;20541;-70
2024/01/02 07:52:37;;;;;;;1.33;0.43;;;8.70;27.80;;;;;;5011562;28;20681;-69
2024/01/02 07:55:03;;;;;;;1.63;0.60;;;8.80;26.70;;;;;;5011734;28;20180;-70
2024/01/02 07:57:29;;;;;;;1.30;0.40;;;8.70;26.70;;;;;;5011712;28;20202;-70
2024/01/02 07:59:55;;;;;;;1.73;0.53;;;8.80;27.40;;;;;;5010323;28;20437;-69
2024/01/02 08:02:20;;;;;;;1.60;0.50;;;8.70;27.90;;;;;;5011253;28;20199;-70
2024/01/02 08:04:46;;;;;;;1.40;0.47;;;8.70;28.00;;;;;;5011688;28;20179;-71
2024/01/02 08:07:12;;;;;;;2.63;0.60;;;8.70;28.70;;;;;;5011654;28;20168;-70
2024/01/02 08:09:38;;;;;;;1.70;0.60;;;8.70;29.80;;;;;;5011584;28;20927;-69
2024/01/02 08:12:04;;;;;;;1.30;0.40;;;8.70;30.00;;;;;;5011488;28;20281;-69
2024/01/02 08:14:29;;;;;;;1.50;0.70;;;8.70;29.60;;;;;;5012040;28;20592;-69
2024/01/02 08:16:55;;;;;;;1.53;0.60;;;8.70;31.80;;;;;;5011892;28;20898;-69
2024/01/02 08:19:20;;;;;;;1.40;0.40;;;8.70;32.50;;;;;;5011963;28;20215;-70
2024/01/02 08:21:46;;;;;;;1.70;0.50;;;8.60;33.50;;;;;;5011665;28;20195;-70
2024/01/02 08:24:12;;;;;;;1.60;0.60;;;8.60;31.60;;;;;;5010655;28;20184;-69
2024/01/02 08:26:37;;;;;;;1.40;0.50;;;8.60;32.30;;;;;;5014340;28;20419;-70
2024/01/02 08:29:03;;;;;;;2.60;0.77;;;8.60;33.60;;;;;;5015049;28;20183;-69
2024/01/02 08:31:28;;;;;;;1.30;0.40;;;8.60;35.90;;;;;;5014951;28;20206;-69
2024/01/02 08:33:54;;;;;;;1.50;0.50;;;8.60;32.90;;;;;;5014877;28;20549;-68
2024/01/02 08:36:19;;;;;;;1.50;0.60;;;8.60;33.00;;;;;;5014640;28;20222;-69
2024/01/02 08:38:45;;;;;;;1.50;0.60;;;8.60;33.10;;;;;;5015095;28;20268;-69
2024/01/02 08:41:11;;;;;;;1.73;0.50;;;8.70;33.60;;;;;;5014263;28;20205;-69
2024/01/02 08:43:36;;;;;;;1.40;0.50;;;8.70;32.40;;;;;;5014904;28;20191;-69
2024/01/02 08:46:02;;;;;;;1.40;0.50;;;8.70;31.70;;;;;;5014537;28;20179;-69
2024/01/02 08:48:28;;;;;;;1.40;0.50;;;8.70;31.20;;;;;;5014631;28;20225;-69
2024/01/02 08:50:53;;;;;;;1.40;0.53;;;8.80;33.30;;;;;;5014246;28;20199;-70
2024/01/02 08:53:19;;;;;;;2.00;0.70;;;8.80;32.80;;;;;;5014583;28;20542;-70
2024/01/02 08:55:44;;;;;;;1.37;0.43;;;8.80;33.70;;;;;;5014433;28;20259;-70
2024/01/02 08:58:12;;;;;;;1.33;0.40;;;8.80;33.20;;;;;;5013110;28;20615;-70
2024/01/02 09:00:37;;;;;;;1.50;0.53;;;8.90;32.20;;;;;;5014327;28;20187;-70
2024/01/02 09:03:03;;;;;;;1.60;0.60;;;8.90;34.20;;;;;;5014545;28;20810;-69
2024/01/02 09:05:29;;;;;;;1.40;0.40;;;8.90;33.70;;;;;;5014705;28;20289;-69
2024/01/02 09:07:55;;;;;;;1.40;0.50;;;8.90;34.20;;;;;;5014164;28;20453;-69
2024/01/02 09:10:23;;;;;;;2.10;0.53;;;8.90;32.00;;;;;;5012543;28;20445;-69
2024/01/02 09:12:49;;;;;;;1.40;0.50;;;9.00;31.40;;;;;;5014030;28;20219;-70
2024/01/02 09:15:15;;;;;;;1.70;0.50;;;9.10;31.20;;;;;;5013997;28;20433;-69
2024/01/02 09:17:41;;;;;;;1.97;0.90;;;9.10;30.00;;;;;;5012471;28;20569;-68
2024/01/02 09:20:07;;;;;;;2.73;1.47;;;9.20;31.20;;;;;;5012483;28;20424;-70
2024/01/02 09:22:32;;;;;;;1.30;0.40;;;9.20;29.90;;;;;;5013921;28;20199;-69
2024/01/02 09:25:01;;;;;;;1.60;0.60;;;9.30;30.00;;;;;;5014015;28;20446;-69
2024/01/02 09:27:32;;;;;;;2.00;0.50;;;9.30;29.10;;;;;;5013935;28;20192;-70
2024/01/02 09:30:01;;;;;;;1.50;0.60;;;9.40;28.10;;;;;;5013906;28;20421;-69
2024/01/02 09:32:26;;;;;;;1.80;0.50;;;9.40;28.70;;;;;;5013332;28;20470;-67
2024/01/02 09:34:53;;;;;;;1.70;0.63;;;9.60;28.10;;;;;;5013826;28;20454;-69
2024/01/02 09:37:19;;;;;;;1.50;0.70;;;9.60;27.80;;;;;;5013146;28;20196;-69
2024/01/02 09:39:44;;;;;;;1.40;0.57;;;9.60;27.20;;;;;;5013760;28;20419;-69
2024/01/02 09:42:28;;;;;;;1.50;0.50;;;9.60;26.70;;;;;;5013586;28;20690;-68
2024/01/02 09:45:02;;;;;;;1.40;0.40;;;9.60;25.40;;;;;;5014082;28;20176;-69
2024/01/02 09:47:36;;;;;;;1.40;0.40;;;9.70;25.90;;;;;;5013798;28;20426;-69
2024/01/02 09:50:38;;;;;;;1.40;0.47;;;9.70;25.80;;;;;;5014031;28;20501;-69
2024/01/02 09:53:22;;;;;;;1.70;0.53;;;9.70;24.80;;;;;;5004659;28;20824;-68
2024/01/02 09:56:10;;;;;;;1.40;0.47;;;9.80;25.50;;;;;;5013616;28;20838;-68
2024/01/02 09:59:10;;;;;;;1.97;0.63;;;9.90;25.50;;;;;;5013419;28;20469;-68
2024/01/02 10:01:38;;;;;;;1.40;0.50;;;9.90;25.30;;;;;;5012018;28;20489;-69
2024/01/02 10:04:39;;;;;;;1.40;0.50;;;9.90;25.70;;;;;;5013264;28;20780;-68
2024/01/02 10:07:25;;;;;;;1.60;0.63;;;9.90;25.80;;;;;;5011304;28;20421;-69
2024/01/02 10:10:17;;;;;;;1.50;0.50;;;10.00;23.70;;;;;;5013360;28;20417;-69
2024/01/02 10:12:45;;;;;;;1.77;0.80;;;10.10;23.70;;;;;;5013024;28;20856;-69
2024/01/02 10:15:38;;;;;;;1.60;0.60;;;10.10;23.40;;;;;;5013149;28;20447;-69
2024/01/02 10:18:03;;;;;;;1.40;0.50;;;10.10;23.30;;;;;;5013036;28;20999;-68
2024/01/02 10:20:38;;;;;;;1.40;0.47;;;10.10;22.70;;;;;;5012705;28;20506;-68
2024/01/02 10:23:51;;;;;;;1.40;0.50;;;10.20;22.70;;;;;;5012855;28;20270;-70
2024/01/02 10:26:19;;;;;;;1.70;0.77;;;10.20;21.30;;;;;;4971512;28;20515;-70
2024/01/02 10:28:48;;;;;;;14.33;0.93;;;10.30;21.50;;;;;;5004834;28;20958;-70
2024/01/02 10:31:34;;;;;;;1.70;0.60;;;10.40;20.90;;;;;;5012958;28;20929;-70
2024/01/02 10:34:07;;;;;;;2.00;0.70;;;10.40;20.30;;;;;;5012940;28;20921;-68
2024/01/02 10:36:40;;;;;;;2.10;0.97;;;10.40;19.70;;;;;;5012711;28;20974;-69
2024/01/02 10:39:14;;;;;;;1.80;0.80;;;10.40;20.70;;;;;;5013067;28;20457;-68
2024/01/02 10:41:57;;;;;;;3.83;2.30;;;10.50;20.70;;;;;;5013133;28;20480;-69
2024/01/02 10:44:42;;;;;;;2.57;1.30;;;10.50;20.50;;;;;;5012761;28;20410;-68
2024/01/02 10:47:21;;;;;;;3.00;1.63;;;10.60;20.10;;;;;;5012278;28;20437;-69
2024/01/02 10:49:52;;;;;;;2.40;1.30;;;10.70;20.10;;;;;;5012007;28;20454;-69
2024/01/02 10:52:23;;;;;;;3.00;1.57;;;10.80;19.90;;;;;;5012279;28;20478;-69
2024/01/02 10:55:04;;;;;;;4.13;0.63;;;10.80;18.80;;;;;;5012591;28;20750;-68
2024/01/02 10:58:01;;;;;;;1.80;1.00;;;10.70;18.60;;;;;;5012748;28;20458;-69
2024/01/02 11:00:31;;;;;;;3.50;1.20;;;10.60;18.50;;;;;;5012316;28;20423;-68
2024/01/02 11:03:05;;;;;;;3.00;1.17;;;10.60;20.00;;;;;;5012442;28;20427;-69
2024/01/02 11:05:43;;;;;;;3.77;1.60;;;10.60;20.90;;;;;;5012526;28;20489;-69
2024/01/02 11:08:21;;;;;;;3.43;1.20;;;10.80;19.70;;;;;;5012553;28;20411;-69
2024/01/02 11:10:58;;;;;;;2.67;1.33;;;10.80;19.00;;;;;;5012007;28;20426;-70
2024/01/02 11:13:26;;;;;;;1.80;0.87;;;10.70;19.20;;;;;;5015132;28;20427;-70
2024/01/02 11:15:56;;;;;;;2.00;0.63;;;10.80;19.30;;;;;;5018223;28;20461;-70
2024/01/02 11:18:27;;;;;;;1.60;0.67;;;10.80;18.90;;;;;;5013920;28;20470;-70
2024/01/02 11:21:27;;;;;;;2.67;1.00;;;11.00;18.30;;;;;;5012211;28;20415;-70
2024/01/02 11:23:55;;;;;;;2.07;0.70;;;11.10;18.80;;;;;;5012385;28;20411;-70
2024/01/02 11:26:29;;;;;;;1.50;0.50;;;11.20;18.00;;;;;;5012125;28;20419;-70
2024/01/02 11:29:00;;;;;;;2.17;0.57;;;11.20;16.50;;;;;;5012030;28;20422;-69
2024/01/02 11:31:29;;;;;;;1.60;0.80;;;11.00;17.00;;;;;;5011571;28;20440;-70
2024/01/02 11:34:12;;;;;;;1.70;0.70;;;11.10;17.90;;;;;;5012429;28;20423;-69
2024/01/02 11:37:11;;;;;;;1.60;0.60;;;11.20;17.60;;;;;;5012040;28;20857;-69
2024/01/02 11:39:53;;;;;;;1.67;0.77;;;11.20;16.90;;;;;;5011807;28;21063;-69
2024/01/02 11:42:45;;;;;;;1.40;0.50;;;11.40;16.00;;;;;;5011572;28;20517;-69
2024/01/02 11:45:17;;;;;;;1.90;0.60;;;11.20;16.10;;;;;;5011908;28;20412;-69
2024/01/02 11:47:57;;;;;;;1.57;0.50;;;11.30;15.70;;;;;;5011813;28;20503;-70
2024/01/02 11:50:28;;;;;;;1.50;0.50;;;11.30;15.80;;;;;;5011678;28;20826;-70
2024/01/02 11:53:12;;;;;;;1.63;0.50;;;11.40;15.00;;;;;;5012032;28;20435;-70
2024/01/02 11:55:45;;;;;;;1.40;0.50;;;11.40;15.90;;;;;;5012007;28;20511;-69
2024/01/02 11:58:29;;;;;;;1.40;0.50;;;11.40;15.00;;;;;;5011891;28;20933;-68
2024/01/02 12:01:07;;;;;;;1.50;0.53;;;11.30;15.00;;;;;;5014948;28;20481;-68
2024/01/02 12:03:39;;;;;;;1.40;0.40;;;11.40;15.00;;;;;;5015449;28;20509;-68
2024/01/02 12:06:15;;;;;;;1.53;0.50;;;11.30;15.10;;;;;;5014206;28;20427;-68
2024/01/02 12:08:47;;;;;;;1.50;0.53;;;11.40;15.80;;;;;;5015296;28;20426;-68
2024/01/02 12:11:16;;;;;;;2.10;0.70;;;11.40;15.90;;;;;;5014888;28;20486;-69
2024/01/02 12:13:54;;;;;;;1.90;0.67;;;11.50;16.10;;;;;;5015249;28;20424;-68
2024/01/02 12:16:20;;;;;;;1.50;0.50;;;11.60;15.50;;;;;;5014977;28;20502;-68
2024/01/02 12:18:49;;;;;;;1.50;0.50;;;11.50;15.10;;;;;;5014846;28;20494;-68
2024/01/02 12:21:20;;;;;;;1.70;0.73;;;11.20;15.60;;;;;;5015273;28;20446;-69
2024/01/02 12:23:49;;;;;;;1.60;0.60;;;11.10;16.30;;;;;;5015083;28;20438;-69
2024/01/02 12:26:20;;;;;;;1.60;0.50;;;11.30;15.60;;;;;;5014879;28;20442;-69
2024/01/02 12:28:47;;;;;;;1.60;0.50;;;11.00;16.40;;;;;;5015114;28;20426;-69
2024/01/02 12:31:32;;;;;;;1.60;0.60;;;11.00;16.60;;;;;;5014627;28;20523;-69
2024/01/02 12:34:15;;;;;;;1.50;0.50;;;11.10;16.60;;;;;;5014699;28;20522;-68
2024/01/02 12:36:47;;;;;;;1.80;0.57;;;11.20;16.80;;;;;;5014913;28;20761;-69
2024/01/02 12:39:16;;;;;;;1.97;0.60;;;11.30;17.20;;;;;;5014765;28;20545;-68
2024/01/02 12:41:44;;;;;;;10.30;0.73;;;11.10;16.60;;;;;;5014713;28;20451;-69
2024/01/02 12:44:12;;;;;;;1.60;0.73;;;11.10;16.60;;;;;;5014752;28;20422;-69
2024/01/02 12:46:59;;;;;;;1.40;0.50;;;11.10;15.70;;;;;;5014696;28;20833;-69
2024/01/02 12:49:29;;;;;;;1.33;0.40;;;11.10;16.50;;;;;;5013384;28;20505;-69
2024/01/02 12:52:02;;;;;;;1.60;0.50;;;11.20;16.60;;;;;;5014271;28;20500;-69
2024/01/02 12:54:29;;;;;;;1.40;0.40;;;11.30;16.80;;;;;;5014429;28;20471;-69
2024/01/02 12:57:00;;;;;;;1.47;0.53;;;11.40;16.40;;;;;;5012913;28;20423;-69
2024/01/02 12:59:30;;;;;;;2.40;0.80;;;11.40;15.80;;;;;;5014140;28;20407;-69
2024/01/02 13:01:57;;;;;;;1.70;0.60;;;11.50;16.40;;;;;;5014021;28;20428;-69